sensor_id;sensor_type;location;lat;lon;timestamp;P1;durP1;ratioP1;P2;durP2;ratioP2
651;SDS011;310;48.490;9.200;2022-08-23T00:00:30;1.30;;;1.20;;
651;SDS011;310;48.490;9.200;2022-08-23T00:02:56;1.30;;;1.10;;
651;SDS011;310;48.490;9.200;2022-08-23T00:05:22;1.30;;;1.20;;
651;SDS011;310;48.490;9.200;2022-08-23T00:07:47;1.30;;;1.20;;
651;SDS011;310;48.490;9.200;2022-08-23T00:10:14;1.30;;;1.30;;
651;SDS011;310;48.490;9.200;2022-08-23T00:12:41;1.30;;;1.10;;
651;SDS011;310;48.490;9.200;2022-08-23T00:15:09;1.30;;;1.20;;
651;SDS011;310;48.490;9.200;2022-08-23T00:17:37;1.30;;;1.20;;
651;SDS011;310;48.490;9.200;2022-08-23T00:20:07;1.30;;;1.20;;
651;SDS011;310;48.490;9.200;2022-08-23T00:22:35;1.30;;;1.10;;
651;SDS011;310;48.490;9.200;2022-08-23T00:25:02;1.30;;;1.20;;
651;SDS011;310;48.490;9.200;2022-08-23T00:27:29;1.30;;;1.27;;
651;SDS011;310;48.490;9.200;2022-08-23T00:29:56;1.30;;;1.20;;
651;SDS011;310;48.490;9.200;2022-08-23T00:32:25;1.30;;;1.20;;
651;SDS011;310;48.490;9.200;2022-08-23T00:34:53;1.30;;;1.20;;
651;SDS011;310;48.490;9.200;2022-08-23T00:37:20;1.30;;;1.20;;
651;SDS011;310;48.490;9.200;2022-08-23T00:39:46;1.30;;;1.20;;
651;SDS011;310;48.490;9.200;2022-08-23T00:42:24;1.30;;;1.30;;
651;SDS011;310;48.490;9.200;2022-08-23T00:45:17;1.30;;;1.27;;
651;SDS011;310;48.490;9.200;2022-08-23T00:48:08;1.30;;;1.20;;
651;SDS011;310;48.490;9.200;2022-08-23T00:50:37;1.30;;;1.27;;
651;SDS011;310;48.490;9.200;2022-08-23T00:55:45;1.30;;;1.20;;
651;SDS011;310;48.490;9.200;2022-08-23T00:58:13;1.30;;;1.10;;
651;SDS011;310;48.490;9.200;2022-08-23T01:00:42;1.30;;;1.13;;
651;SDS011;310;48.490;9.200;2022-08-23T01:03:08;1.30;;;1.20;;
651;SDS011;310;48.490;9.200;2022-08-23T01:05:47;1.30;;;1.23;;
651;SDS011;310;48.490;9.200;2022-08-23T01:08:22;1.30;;;1.30;;
651;SDS011;310;48.490;9.200;2022-08-23T01:10:56;1.30;;;1.20;;
651;SDS011;310;48.490;9.200;2022-08-23T01:13:52;1.30;;;1.20;;
651;SDS011;310;48.490;9.200;2022-08-23T01:16:45;1.30;;;1.23;;
651;SDS011;310;48.490;9.200;2022-08-23T01:19:31;1.30;;;1.10;;
651;SDS011;310;48.490;9.200;2022-08-23T01:24:34;1.30;;;1.20;;
651;SDS011;310;48.490;9.200;2022-08-23T01:27:01;1.30;;;1.20;;
651;SDS011;310;48.490;9.200;2022-08-23T01:29:27;1.30;;;1.30;;
651;SDS011;310;48.490;9.200;2022-08-23T01:31:53;1.30;;;1.20;;
651;SDS011;310;48.490;9.200;2022-08-23T01:34:21;1.30;;;1.30;;
651;SDS011;310;48.490;9.200;2022-08-23T01:36:50;1.50;;;1.40;;
651;SDS011;310;48.490;9.200;2022-08-23T01:39:16;1.30;;;1.20;;
651;SDS011;310;48.490;9.200;2022-08-23T01:41:42;1.30;;;1.30;;
651;SDS011;310;48.490;9.200;2022-08-23T01:44:07;1.30;;;1.30;;
651;SDS011;310;48.490;9.200;2022-08-23T01:46:33;1.30;;;1.20;;
651;SDS011;310;48.490;9.200;2022-08-23T01:49:01;1.30;;;1.30;;
651;SDS011;310;48.490;9.200;2022-08-23T01:51:28;1.30;;;1.10;;
651;SDS011;310;48.490;9.200;2022-08-23T01:53:54;1.30;;;1.20;;
651;SDS011;310;48.490;9.200;2022-08-23T01:56:20;1.30;;;1.20;;
651;SDS011;310;48.490;9.200;2022-08-23T01:58:47;1.30;;;1.10;;
651;SDS011;310;48.490;9.200;2022-08-23T02:01:13;1.30;;;1.30;;
651;SDS011;310;48.490;9.200;2022-08-23T02:03:39;1.30;;;1.30;;
651;SDS011;310;48.490;9.200;2022-08-23T02:06:05;1.30;;;1.30;;
651;SDS011;310;48.490;9.200;2022-08-23T02:08:31;1.30;;;1.23;;
651;SDS011;310;48.490;9.200;2022-08-23T02:11:18;1.30;;;1.13;;
651;SDS011;310;48.490;9.200;2022-08-23T02:13:46;1.30;;;1.20;;
651;SDS011;310;48.490;9.200;2022-08-23T02:16:20;1.30;;;1.20;;
651;SDS011;310;48.490;9.200;2022-08-23T02:18:47;1.30;;;1.13;;
651;SDS011;310;48.490;9.200;2022-08-23T02:21:13;1.30;;;1.13;;
651;SDS011;310;48.490;9.200;2022-08-23T02:23:38;1.30;;;1.23;;
651;SDS011;310;48.490;9.200;2022-08-23T02:26:04;1.30;;;1.20;;
651;SDS011;310;48.490;9.200;2022-08-23T02:28:31;1.30;;;1.23;;
651;SDS011;310;48.490;9.200;2022-08-23T02:30:56;1.30;;;1.10;;
651;SDS011;310;48.490;9.200;2022-08-23T02:33:22;1.30;;;1.30;;
651;SDS011;310;48.490;9.200;2022-08-23T02:35:47;1.30;;;1.30;;
651;SDS011;310;48.490;9.200;2022-08-23T02:38:14;1.30;;;1.20;;
651;SDS011;310;48.490;9.200;2022-08-23T02:40:40;1.30;;;1.10;;
651;SDS011;310;48.490;9.200;2022-08-23T02:43:06;1.30;;;1.20;;
651;SDS011;310;48.490;9.200;2022-08-23T02:45:32;1.30;;;1.20;;
651;SDS011;310;48.490;9.200;2022-08-23T02:47:58;1.30;;;1.20;;
651;SDS011;310;48.490;9.200;2022-08-23T02:50:25;1.30;;;1.10;;
651;SDS011;310;48.490;9.200;2022-08-23T02:52:52;1.30;;;1.30;;
651;SDS011;310;48.490;9.200;2022-08-23T02:55:19;1.30;;;1.20;;
651;SDS011;310;48.490;9.200;2022-08-23T02:57:45;1.30;;;1.23;;
651;SDS011;310;48.490;9.200;2022-08-23T03:00:11;1.30;;;1.20;;
651;SDS011;310;48.490;9.200;2022-08-23T03:02:38;1.30;;;1.20;;
651;SDS011;310;48.490;9.200;2022-08-23T03:05:05;1.30;;;1.27;;
651;SDS011;310;48.490;9.200;2022-08-23T03:07:31;1.30;;;1.20;;
651;SDS011;310;48.490;9.200;2022-08-23T03:09:57;1.30;;;1.20;;
651;SDS011;310;48.490;9.200;2022-08-23T03:12:23;1.30;;;1.20;;
651;SDS011;310;48.490;9.200;2022-08-23T03:14:49;1.30;;;1.10;;
651;SDS011;310;48.490;9.200;2022-08-23T03:17:17;1.30;;;1.13;;
651;SDS011;310;48.490;9.200;2022-08-23T03:19:44;1.30;;;1.10;;
651;SDS011;310;48.490;9.200;2022-08-23T03:22:10;1.30;;;1.10;;
651;SDS011;310;48.490;9.200;2022-08-23T03:24:35;1.30;;;1.10;;
651;SDS011;310;48.490;9.200;2022-08-23T03:27:01;1.30;;;1.10;;
651;SDS011;310;48.490;9.200;2022-08-23T03:29:28;1.30;;;1.20;;
651;SDS011;310;48.490;9.200;2022-08-23T03:31:53;1.30;;;1.20;;
651;SDS011;310;48.490;9.200;2022-08-23T03:34:19;1.30;;;1.20;;
651;SDS011;310;48.490;9.200;2022-08-23T03:36:45;1.30;;;1.17;;
651;SDS011;310;48.490;9.200;2022-08-23T03:39:11;1.30;;;1.13;;
651;SDS011;310;48.490;9.200;2022-08-23T03:41:37;1.30;;;1.10;;
651;SDS011;310;48.490;9.200;2022-08-23T03:44:03;1.30;;;1.20;;
651;SDS011;310;48.490;9.200;2022-08-23T03:46:29;1.30;;;1.10;;
651;SDS011;310;48.490;9.200;2022-08-23T03:48:56;1.30;;;1.20;;
651;SDS011;310;48.490;9.200;2022-08-23T03:51:23;1.30;;;1.13;;
651;SDS011;310;48.490;9.200;2022-08-23T03:53:51;1.30;;;1.10;;
651;SDS011;310;48.490;9.200;2022-08-23T03:56:27;1.30;;;1.07;;
651;SDS011;310;48.490;9.200;2022-08-23T03:58:53;1.30;;;1.30;;
651;SDS011;310;48.490;9.200;2022-08-23T04:01:20;1.30;;;1.10;;
651;SDS011;310;48.490;9.200;2022-08-23T04:03:47;1.30;;;1.30;;
651;SDS011;310;48.490;9.200;2022-08-23T04:06:13;1.30;;;1.10;;
651;SDS011;310;48.490;9.200;2022-08-23T04:08:40;1.30;;;1.10;;
651;SDS011;310;48.490;9.200;2022-08-23T04:11:06;1.30;;;1.10;;
651;SDS011;310;48.490;9.200;2022-08-23T04:13:33;1.30;;;1.20;;
651;SDS011;310;48.490;9.200;2022-08-23T04:16:00;1.30;;;1.10;;
651;SDS011;310;48.490;9.200;2022-08-23T04:18:27;1.30;;;1.20;;
651;SDS011;310;48.490;9.200;2022-08-23T04:20:55;1.30;;;1.10;;
651;SDS011;310;48.490;9.200;2022-08-23T04:23:23;1.30;;;1.20;;
651;SDS011;310;48.490;9.200;2022-08-23T04:25:51;1.30;;;1.13;;
651;SDS011;310;48.490;9.200;2022-08-23T04:28:18;1.30;;;1.03;;
651;SDS011;310;48.490;9.200;2022-08-23T04:30:44;1.30;;;1.20;;
651;SDS011;310;48.490;9.200;2022-08-23T04:33:10;1.30;;;1.10;;
651;SDS011;310;48.490;9.200;2022-08-23T04:35:36;1.30;;;1.10;;
651;SDS011;310;48.490;9.200;2022-08-23T04:38:02;1.30;;;1.10;;
651;SDS011;310;48.490;9.200;2022-08-23T04:40:28;1.30;;;1.10;;
651;SDS011;310;48.490;9.200;2022-08-23T04:43:12;1.30;;;1.20;;
651;SDS011;310;48.490;9.200;2022-08-23T04:45:39;1.30;;;1.20;;
651;SDS011;310;48.490;9.200;2022-08-23T04:48:05;1.30;;;1.10;;
651;SDS011;310;48.490;9.200;2022-08-23T04:50:32;1.30;;;1.20;;
651;SDS011;310;48.490;9.200;2022-08-23T04:52:58;1.30;;;1.20;;
651;SDS011;310;48.490;9.200;2022-08-23T04:55:24;1.30;;;1.20;;
651;SDS011;310;48.490;9.200;2022-08-23T04:57:49;1.30;;;1.20;;
651;SDS011;310;48.490;9.200;2022-08-23T05:00:15;1.30;;;1.30;;
651;SDS011;310;48.490;9.200;2022-08-23T05:02:41;1.30;;;1.20;;
651;SDS011;310;48.490;9.200;2022-08-23T05:05:07;1.30;;;1.20;;
651;SDS011;310;48.490;9.200;2022-08-23T05:07:34;1.30;;;1.20;;
651;SDS011;310;48.490;9.200;2022-08-23T05:10:01;1.30;;;1.20;;
651;SDS011;310;48.490;9.200;2022-08-23T05:12:28;1.30;;;1.10;;
651;SDS011;310;48.490;9.200;2022-08-23T05:14:54;1.30;;;1.20;;
651;SDS011;310;48.490;9.200;2022-08-23T05:17:19;1.30;;;1.20;;
651;SDS011;310;48.490;9.200;2022-08-23T05:19:45;1.30;;;1.30;;
651;SDS011;310;48.490;9.200;2022-08-23T05:22:10;1.30;;;1.10;;
651;SDS011;310;48.490;9.200;2022-08-23T05:24:36;1.30;;;1.20;;
651;SDS011;310;48.490;9.200;2022-08-23T05:27:02;1.30;;;1.20;;
651;SDS011;310;48.490;9.200;2022-08-23T05:29:27;1.30;;;1.20;;
651;SDS011;310;48.490;9.200;2022-08-23T05:31:53;1.30;;;1.30;;
651;SDS011;310;48.490;9.200;2022-08-23T05:34:21;1.30;;;1.20;;
651;SDS011;310;48.490;9.200;2022-08-23T05:36:46;1.30;;;1.20;;
651;SDS011;310;48.490;9.200;2022-08-23T05:39:12;1.30;;;1.30;;
651;SDS011;310;48.490;9.200;2022-08-23T05:41:40;1.30;;;1.13;;
651;SDS011;310;48.490;9.200;2022-08-23T05:44:06;1.30;;;1.27;;
651;SDS011;310;48.490;9.200;2022-08-23T05:46:32;1.30;;;1.17;;
651;SDS011;310;48.490;9.200;2022-08-23T05:48:58;1.30;;;1.30;;
651;SDS011;310;48.490;9.200;2022-08-23T05:51:25;1.30;;;1.10;;
651;SDS011;310;48.490;9.200;2022-08-23T05:53:53;1.30;;;1.13;;
651;SDS011;310;48.490;9.200;2022-08-23T05:56:27;1.30;;;1.20;;
651;SDS011;310;48.490;9.200;2022-08-23T05:59:01;1.30;;;1.30;;
651;SDS011;310;48.490;9.200;2022-08-23T06:01:30;1.30;;;1.30;;
651;SDS011;310;48.490;9.200;2022-08-23T06:03:57;1.30;;;1.20;;
651;SDS011;310;48.490;9.200;2022-08-23T06:06:24;1.30;;;1.30;;
651;SDS011;310;48.490;9.200;2022-08-23T06:08:51;1.30;;;1.20;;
651;SDS011;310;48.490;9.200;2022-08-23T06:11:18;1.30;;;1.10;;
651;SDS011;310;48.490;9.200;2022-08-23T06:13:47;1.30;;;1.20;;
651;SDS011;310;48.490;9.200;2022-08-23T06:16:17;1.30;;;1.20;;
651;SDS011;310;48.490;9.200;2022-08-23T06:18:44;1.30;;;1.20;;
651;SDS011;310;48.490;9.200;2022-08-23T06:21:11;1.30;;;1.30;;
651;SDS011;310;48.490;9.200;2022-08-23T06:23:38;1.30;;;1.23;;
651;SDS011;310;48.490;9.200;2022-08-23T06:26:12;1.30;;;1.27;;
651;SDS011;310;48.490;9.200;2022-08-23T06:28:50;1.30;;;1.20;;
651;SDS011;310;48.490;9.200;2022-08-23T06:31:19;1.30;;;1.20;;
651;SDS011;310;48.490;9.200;2022-08-23T06:34:04;1.30;;;1.30;;
651;SDS011;310;48.490;9.200;2022-08-23T06:36:31;1.30;;;1.20;;
651;SDS011;310;48.490;9.200;2022-08-23T06:38:57;1.30;;;1.20;;
651;SDS011;310;48.490;9.200;2022-08-23T06:41:23;1.30;;;1.10;;
651;SDS011;310;48.490;9.200;2022-08-23T06:43:49;1.43;;;1.37;;
651;SDS011;310;48.490;9.200;2022-08-23T06:46:17;1.30;;;1.20;;
651;SDS011;310;48.490;9.200;2022-08-23T06:48:45;1.30;;;1.10;;
651;SDS011;310;48.490;9.200;2022-08-23T06:51:13;1.30;;;1.10;;
651;SDS011;310;48.490;9.200;2022-08-23T06:53:53;1.30;;;1.20;;
651;SDS011;310;48.490;9.200;2022-08-23T06:56:23;1.30;;;1.20;;
651;SDS011;310;48.490;9.200;2022-08-23T06:58:51;1.30;;;1.30;;
651;SDS011;310;48.490;9.200;2022-08-23T07:01:19;1.30;;;1.20;;
651;SDS011;310;48.490;9.200;2022-08-23T07:03:56;1.30;;;1.20;;
651;SDS011;310;48.490;9.200;2022-08-23T07:06:22;1.30;;;1.20;;
651;SDS011;310;48.490;9.200;2022-08-23T07:08:49;1.30;;;1.20;;
651;SDS011;310;48.490;9.200;2022-08-23T07:11:15;1.30;;;1.20;;
651;SDS011;310;48.490;9.200;2022-08-23T07:13:41;1.30;;;1.10;;
651;SDS011;310;48.490;9.200;2022-08-23T07:16:07;1.30;;;1.23;;
651;SDS011;310;48.490;9.200;2022-08-23T07:18:33;1.30;;;1.20;;
651;SDS011;310;48.490;9.200;2022-08-23T07:21:00;1.30;;;1.30;;
651;SDS011;310;48.490;9.200;2022-08-23T07:23:27;1.30;;;1.30;;
651;SDS011;310;48.490;9.200;2022-08-23T07:25:58;1.30;;;1.10;;
651;SDS011;310;48.490;9.200;2022-08-23T07:28:25;1.30;;;1.30;;
651;SDS011;310;48.490;9.200;2022-08-23T07:30:50;1.30;;;1.30;;
651;SDS011;310;48.490;9.200;2022-08-23T07:33:16;1.30;;;1.13;;
651;SDS011;310;48.490;9.200;2022-08-23T07:35:47;1.30;;;1.30;;
651;SDS011;310;48.490;9.200;2022-08-23T07:38:14;1.30;;;1.20;;
651;SDS011;310;48.490;9.200;2022-08-23T07:40:40;1.30;;;1.30;;
651;SDS011;310;48.490;9.200;2022-08-23T07:43:06;1.30;;;1.20;;
651;SDS011;310;48.490;9.200;2022-08-23T07:45:32;1.30;;;1.27;;
651;SDS011;310;48.490;9.200;2022-08-23T07:48:00;1.30;;;1.30;;
651;SDS011;310;48.490;9.200;2022-08-23T07:50:26;1.30;;;1.30;;
651;SDS011;310;48.490;9.200;2022-08-23T07:52:52;1.30;;;1.20;;
651;SDS011;310;48.490;9.200;2022-08-23T07:55:18;1.30;;;1.20;;
651;SDS011;310;48.490;9.200;2022-08-23T07:57:43;1.30;;;1.10;;
651;SDS011;310;48.490;9.200;2022-08-23T08:00:09;1.30;;;1.20;;
651;SDS011;310;48.490;9.200;2022-08-23T08:02:35;1.30;;;1.17;;
651;SDS011;310;48.490;9.200;2022-08-23T08:05:01;1.30;;;1.20;;
651;SDS011;310;48.490;9.200;2022-08-23T08:07:27;1.30;;;1.20;;
651;SDS011;310;48.490;9.200;2022-08-23T08:09:52;1.30;;;1.10;;
651;SDS011;310;48.490;9.200;2022-08-23T08:12:18;1.30;;;1.20;;
651;SDS011;310;48.490;9.200;2022-08-23T08:14:44;1.30;;;1.20;;
651;SDS011;310;48.490;9.200;2022-08-23T08:17:12;1.30;;;1.20;;
651;SDS011;310;48.490;9.200;2022-08-23T08:19:38;1.30;;;1.10;;
651;SDS011;310;48.490;9.200;2022-08-23T08:22:05;1.30;;;1.30;;
651;SDS011;310;48.490;9.200;2022-08-23T08:24:31;1.30;;;1.23;;
651;SDS011;310;48.490;9.200;2022-08-23T08:26:57;1.30;;;1.10;;
651;SDS011;310;48.490;9.200;2022-08-23T08:29:22;1.30;;;1.20;;
651;SDS011;310;48.490;9.200;2022-08-23T08:31:48;1.30;;;1.20;;
651;SDS011;310;48.490;9.200;2022-08-23T08:34:15;1.30;;;1.20;;
651;SDS011;310;48.490;9.200;2022-08-23T08:36:43;1.30;;;1.20;;
651;SDS011;310;48.490;9.200;2022-08-23T08:39:12;1.23;;;1.10;;
651;SDS011;310;48.490;9.200;2022-08-23T08:52:31;1.30;;;1.20;;
651;SDS011;310;48.490;9.200;2022-08-23T08:55:08;1.30;;;1.20;;
651;SDS011;310;48.490;9.200;2022-08-23T08:57:39;1.30;;;1.20;;
651;SDS011;310;48.490;9.200;2022-08-23T09:02:41;1.27;;;1.20;;
651;SDS011;310;48.490;9.200;2022-08-23T09:05:11;1.30;;;1.20;;
651;SDS011;310;48.490;9.200;2022-08-23T09:18:43;1.27;;;1.20;;
651;SDS011;310;48.490;9.200;2022-08-23T09:21:10;1.20;;;1.10;;
651;SDS011;310;48.490;9.200;2022-08-23T09:23:40;1.20;;;1.10;;
651;SDS011;310;48.490;9.200;2022-08-23T09:26:24;1.20;;;1.20;;
651;SDS011;310;48.490;9.200;2022-08-23T09:28:53;1.27;;;1.20;;
651;SDS011;310;48.490;9.200;2022-08-23T09:31:40;1.20;;;1.10;;
651;SDS011;310;48.490;9.200;2022-08-23T09:34:08;1.20;;;1.10;;
651;SDS011;310;48.490;9.200;2022-08-23T09:36:39;1.30;;;1.20;;
651;SDS011;310;48.490;9.200;2022-08-23T09:39:07;1.20;;;1.10;;
651;SDS011;310;48.490;9.200;2022-08-23T09:41:48;1.20;;;1.13;;
651;SDS011;310;48.490;9.200;2022-08-23T09:44:28;1.23;;;1.17;;
651;SDS011;310;48.490;9.200;2022-08-23T09:47:03;1.20;;;1.10;;
651;SDS011;310;48.490;9.200;2022-08-23T09:49:31;1.30;;;1.20;;
651;SDS011;310;48.490;9.200;2022-08-23T09:52:00;1.30;;;1.20;;
651;SDS011;310;48.490;9.200;2022-08-23T09:54:36;1.20;;;1.10;;
651;SDS011;310;48.490;9.200;2022-08-23T09:57:06;1.20;;;1.10;;
651;SDS011;310;48.490;9.200;2022-08-23T10:02:23;1.20;;;1.10;;
651;SDS011;310;48.490;9.200;2022-08-23T10:05:02;1.23;;;1.20;;
651;SDS011;310;48.490;9.200;2022-08-23T10:07:54;1.20;;;1.10;;
651;SDS011;310;48.490;9.200;2022-08-23T10:10:30;1.20;;;1.10;;
651;SDS011;310;48.490;9.200;2022-08-23T10:13:11;1.23;;;1.10;;
651;SDS011;310;48.490;9.200;2022-08-23T10:21:22;1.20;;;1.20;;
651;SDS011;310;48.490;9.200;2022-08-23T10:27:17;1.30;;;1.20;;
651;SDS011;310;48.490;9.200;2022-08-23T10:30:13;1.30;;;1.20;;
651;SDS011;310;48.490;9.200;2022-08-23T10:40:49;1.20;;;1.10;;
651;SDS011;310;48.490;9.200;2022-08-23T10:44:19;1.20;;;1.20;;
651;SDS011;310;48.490;9.200;2022-08-23T10:46:21;1.27;;;1.20;;
651;SDS011;310;48.490;9.200;2022-08-23T10:48:54;1.20;;;1.10;;
651;SDS011;310;48.490;9.200;2022-08-23T10:54:36;1.30;;;1.20;;
651;SDS011;310;48.490;9.200;2022-08-23T10:56:48;1.20;;;1.00;;
651;SDS011;310;48.490;9.200;2022-08-23T10:59:17;1.20;;;1.10;;
651;SDS011;310;48.490;9.200;2022-08-23T11:07:18;1.20;;;1.00;;
651;SDS011;310;48.490;9.200;2022-08-23T11:10:05;1.20;;;1.10;;
651;SDS011;310;48.490;9.200;2022-08-23T11:23:42;1.20;;;1.07;;
651;SDS011;310;48.490;9.200;2022-08-23T11:26:10;1.20;;;1.10;;
651;SDS011;310;48.490;9.200;2022-08-23T11:28:46;1.20;;;1.00;;
651;SDS011;310;48.490;9.200;2022-08-23T11:33:47;1.20;;;1.00;;
651;SDS011;310;48.490;9.200;2022-08-23T11:36:33;1.20;;;1.00;;
651;SDS011;310;48.490;9.200;2022-08-23T11:41:29;1.20;;;0.90;;
651;SDS011;310;48.490;9.200;2022-08-23T11:46:32;1.20;;;0.90;;
651;SDS011;310;48.490;9.200;2022-08-23T11:57:12;1.20;;;0.90;;
651;SDS011;310;48.490;9.200;2022-08-23T12:05:17;1.20;;;0.80;;
651;SDS011;310;48.490;9.200;2022-08-23T12:18:44;1.20;;;0.80;;
651;SDS011;310;48.490;9.200;2022-08-23T12:23:49;1.20;;;0.80;;
651;SDS011;310;48.490;9.200;2022-08-23T12:27:06;1.20;;;0.90;;
651;SDS011;310;48.490;9.200;2022-08-23T12:29:11;1.20;;;0.90;;
651;SDS011;310;48.490;9.200;2022-08-23T12:34:26;1.20;;;0.90;;
651;SDS011;310;48.490;9.200;2022-08-23T12:37:05;1.20;;;0.90;;
651;SDS011;310;48.490;9.200;2022-08-23T12:39:37;1.20;;;0.90;;
651;SDS011;310;48.490;9.200;2022-08-23T12:42:15;1.20;;;0.90;;
651;SDS011;310;48.490;9.200;2022-08-23T12:45:02;1.20;;;0.90;;
651;SDS011;310;48.490;9.200;2022-08-23T12:47:28;1.20;;;0.90;;
651;SDS011;310;48.490;9.200;2022-08-23T12:49:56;1.20;;;0.90;;
651;SDS011;310;48.490;9.200;2022-08-23T12:52:29;1.20;;;1.00;;
651;SDS011;310;48.490;9.200;2022-08-23T12:54:57;1.20;;;0.97;;
651;SDS011;310;48.490;9.200;2022-08-23T12:57:35;1.20;;;0.90;;
651;SDS011;310;48.490;9.200;2022-08-23T13:00:19;1.20;;;0.90;;
651;SDS011;310;48.490;9.200;2022-08-23T13:05:35;1.20;;;0.90;;
651;SDS011;310;48.490;9.200;2022-08-23T13:08:02;1.20;;;1.00;;
651;SDS011;310;48.490;9.200;2022-08-23T13:10:35;1.20;;;1.00;;
651;SDS011;310;48.490;9.200;2022-08-23T13:13:04;1.20;;;1.00;;
651;SDS011;310;48.490;9.200;2022-08-23T13:15:55;1.20;;;0.90;;
651;SDS011;310;48.490;9.200;2022-08-23T13:23:50;1.20;;;1.00;;
651;SDS011;310;48.490;9.200;2022-08-23T13:26:27;1.20;;;0.90;;
651;SDS011;310;48.490;9.200;2022-08-23T13:29:01;1.20;;;1.00;;
651;SDS011;310;48.490;9.200;2022-08-23T13:31:48;1.20;;;1.00;;
651;SDS011;310;48.490;9.200;2022-08-23T13:37:28;1.20;;;1.00;;
651;SDS011;310;48.490;9.200;2022-08-23T13:40:03;1.20;;;1.00;;
651;SDS011;310;48.490;9.200;2022-08-23T13:42:40;1.20;;;0.90;;
651;SDS011;310;48.490;9.200;2022-08-23T13:45:18;1.20;;;1.00;;
651;SDS011;310;48.490;9.200;2022-08-23T13:47:45;1.20;;;1.00;;
651;SDS011;310;48.490;9.200;2022-08-23T13:50:14;1.20;;;0.90;;
651;SDS011;310;48.490;9.200;2022-08-23T13:52:52;1.20;;;1.00;;
651;SDS011;310;48.490;9.200;2022-08-23T13:55:18;1.20;;;0.90;;
651;SDS011;310;48.490;9.200;2022-08-23T13:57:44;1.20;;;1.00;;
651;SDS011;310;48.490;9.200;2022-08-23T14:00:10;1.20;;;0.90;;
651;SDS011;310;48.490;9.200;2022-08-23T14:02:36;1.20;;;0.90;;
651;SDS011;310;48.490;9.200;2022-08-23T14:05:03;1.20;;;0.90;;
651;SDS011;310;48.490;9.200;2022-08-23T14:07:29;1.20;;;0.90;;
651;SDS011;310;48.490;9.200;2022-08-23T14:09:55;1.20;;;1.00;;
651;SDS011;310;48.490;9.200;2022-08-23T14:12:22;1.20;;;0.90;;
651;SDS011;310;48.490;9.200;2022-08-23T14:14:51;1.20;;;1.00;;
651;SDS011;310;48.490;9.200;2022-08-23T14:17:17;1.20;;;0.90;;
651;SDS011;310;48.490;9.200;2022-08-23T14:19:43;1.20;;;1.00;;
651;SDS011;310;48.490;9.200;2022-08-23T14:22:11;1.20;;;1.00;;
651;SDS011;310;48.490;9.200;2022-08-23T14:24:37;1.20;;;1.00;;
651;SDS011;310;48.490;9.200;2022-08-23T14:27:03;1.20;;;0.90;;
651;SDS011;310;48.490;9.200;2022-08-23T14:29:29;1.20;;;1.10;;
651;SDS011;310;48.490;9.200;2022-08-23T14:31:56;1.20;;;1.00;;
651;SDS011;310;48.490;9.200;2022-08-23T14:34:23;1.20;;;0.90;;
651;SDS011;310;48.490;9.200;2022-08-23T14:36:50;1.20;;;1.00;;
651;SDS011;310;48.490;9.200;2022-08-23T14:39:17;1.20;;;1.00;;
651;SDS011;310;48.490;9.200;2022-08-23T14:41:46;1.27;;;1.00;;
651;SDS011;310;48.490;9.200;2022-08-23T14:44:12;1.20;;;0.90;;
651;SDS011;310;48.490;9.200;2022-08-23T14:46:40;1.20;;;1.00;;
651;SDS011;310;48.490;9.200;2022-08-23T14:49:06;1.20;;;0.90;;
651;SDS011;310;48.490;9.200;2022-08-23T14:51:33;1.20;;;1.00;;
651;SDS011;310;48.490;9.200;2022-08-23T14:54:02;1.20;;;0.90;;
651;SDS011;310;48.490;9.200;2022-08-23T14:56:29;1.20;;;0.90;;
651;SDS011;310;48.490;9.200;2022-08-23T14:58:56;1.20;;;0.90;;
651;SDS011;310;48.490;9.200;2022-08-23T15:01:21;1.20;;;0.90;;
651;SDS011;310;48.490;9.200;2022-08-23T15:03:47;1.20;;;0.90;;
651;SDS011;310;48.490;9.200;2022-08-23T15:06:14;1.20;;;0.90;;
651;SDS011;310;48.490;9.200;2022-08-23T15:08:41;1.20;;;0.90;;
651;SDS011;310;48.490;9.200;2022-08-23T15:11:08;1.20;;;1.00;;
651;SDS011;310;48.490;9.200;2022-08-23T15:13:35;1.20;;;0.97;;
651;SDS011;310;48.490;9.200;2022-08-23T15:16:03;1.20;;;1.00;;
651;SDS011;310;48.490;9.200;2022-08-23T15:18:31;1.20;;;0.90;;
651;SDS011;310;48.490;9.200;2022-08-23T15:20:58;1.20;;;1.00;;
651;SDS011;310;48.490;9.200;2022-08-23T15:23:24;1.20;;;1.00;;
651;SDS011;310;48.490;9.200;2022-08-23T15:25:50;1.20;;;1.00;;
651;SDS011;310;48.490;9.200;2022-08-23T15:28:16;1.20;;;0.93;;
651;SDS011;310;48.490;9.200;2022-08-23T15:30:44;1.20;;;1.00;;
651;SDS011;310;48.490;9.200;2022-08-23T15:33:10;1.20;;;1.00;;
651;SDS011;310;48.490;9.200;2022-08-23T15:35:37;1.20;;;1.00;;
651;SDS011;310;48.490;9.200;2022-08-23T15:38:08;1.20;;;1.00;;
651;SDS011;310;48.490;9.200;2022-08-23T15:40:35;1.20;;;1.00;;
651;SDS011;310;48.490;9.200;2022-08-23T15:43:01;1.20;;;1.00;;
651;SDS011;310;48.490;9.200;2022-08-23T15:45:27;1.20;;;1.10;;
651;SDS011;310;48.490;9.200;2022-08-23T15:47:54;1.20;;;1.10;;
651;SDS011;310;48.490;9.200;2022-08-23T15:50:23;1.20;;;1.00;;
651;SDS011;310;48.490;9.200;2022-08-23T15:52:51;1.20;;;1.00;;
651;SDS011;310;48.490;9.200;2022-08-23T15:55:17;1.20;;;1.00;;
651;SDS011;310;48.490;9.200;2022-08-23T15:57:44;1.20;;;1.00;;
651;SDS011;310;48.490;9.200;2022-08-23T16:00:16;1.20;;;1.00;;
651;SDS011;310;48.490;9.200;2022-08-23T16:02:44;1.20;;;1.17;;
651;SDS011;310;48.490;9.200;2022-08-23T16:05:11;1.20;;;1.00;;
651;SDS011;310;48.490;9.200;2022-08-23T16:07:37;1.20;;;1.00;;
651;SDS011;310;48.490;9.200;2022-08-23T16:10:05;1.20;;;1.07;;
651;SDS011;310;48.490;9.200;2022-08-23T16:12:32;1.20;;;1.17;;
651;SDS011;310;48.490;9.200;2022-08-23T16:14:58;1.20;;;1.00;;
651;SDS011;310;48.490;9.200;2022-08-23T16:17:24;1.20;;;1.00;;
651;SDS011;310;48.490;9.200;2022-08-23T16:19:50;1.20;;;1.00;;
651;SDS011;310;48.490;9.200;2022-08-23T16:22:16;1.20;;;1.00;;
651;SDS011;310;48.490;9.200;2022-08-23T16:24:42;1.20;;;1.00;;
651;SDS011;310;48.490;9.200;2022-08-23T16:27:08;1.20;;;0.90;;
651;SDS011;310;48.490;9.200;2022-08-23T16:29:34;1.20;;;1.00;;
651;SDS011;310;48.490;9.200;2022-08-23T16:32:01;1.20;;;1.00;;
651;SDS011;310;48.490;9.200;2022-08-23T16:34:27;1.20;;;1.00;;
651;SDS011;310;48.490;9.200;2022-08-23T16:36:56;1.20;;;1.10;;
651;SDS011;310;48.490;9.200;2022-08-23T16:39:25;1.20;;;1.00;;
651;SDS011;310;48.490;9.200;2022-08-23T16:41:52;1.20;;;1.10;;
651;SDS011;310;48.490;9.200;2022-08-23T16:44:18;1.20;;;1.00;;
651;SDS011;310;48.490;9.200;2022-08-23T16:46:44;1.20;;;1.00;;
651;SDS011;310;48.490;9.200;2022-08-23T16:49:11;1.20;;;1.00;;
651;SDS011;310;48.490;9.200;2022-08-23T16:51:39;1.20;;;1.00;;
651;SDS011;310;48.490;9.200;2022-08-23T16:54:05;1.20;;;1.00;;
651;SDS011;310;48.490;9.200;2022-08-23T16:56:33;1.20;;;1.00;;
651;SDS011;310;48.490;9.200;2022-08-23T16:59:01;1.20;;;1.00;;
651;SDS011;310;48.490;9.200;2022-08-23T17:01:28;1.20;;;1.00;;
651;SDS011;310;48.490;9.200;2022-08-23T17:04:06;1.20;;;1.10;;
651;SDS011;310;48.490;9.200;2022-08-23T17:06:31;1.20;;;1.10;;
651;SDS011;310;48.490;9.200;2022-08-23T17:08:57;1.27;;;1.13;;
651;SDS011;310;48.490;9.200;2022-08-23T17:11:22;1.20;;;1.00;;
651;SDS011;310;48.490;9.200;2022-08-23T17:13:48;1.30;;;1.20;;
651;SDS011;310;48.490;9.200;2022-08-23T17:16:14;1.20;;;1.00;;
651;SDS011;310;48.490;9.200;2022-08-23T17:18:39;1.20;;;1.00;;
651;SDS011;310;48.490;9.200;2022-08-23T17:21:05;1.20;;;1.00;;
651;SDS011;310;48.490;9.200;2022-08-23T17:23:31;1.30;;;1.10;;
651;SDS011;310;48.490;9.200;2022-08-23T17:25:57;1.20;;;1.07;;
651;SDS011;310;48.490;9.200;2022-08-23T17:28:23;1.20;;;1.10;;
651;SDS011;310;48.490;9.200;2022-08-23T17:30:49;1.30;;;1.00;;
651;SDS011;310;48.490;9.200;2022-08-23T17:33:15;1.27;;;1.00;;
651;SDS011;310;48.490;9.200;2022-08-23T17:35:41;1.30;;;1.10;;
651;SDS011;310;48.490;9.200;2022-08-23T17:38:07;1.30;;;1.10;;
651;SDS011;310;48.490;9.200;2022-08-23T17:40:34;1.30;;;1.17;;
651;SDS011;310;48.490;9.200;2022-08-23T17:43:02;1.30;;;1.10;;
651;SDS011;310;48.490;9.200;2022-08-23T17:45:30;1.30;;;1.10;;
651;SDS011;310;48.490;9.200;2022-08-23T17:47:58;1.23;;;1.03;;
651;SDS011;310;48.490;9.200;2022-08-23T17:50:23;1.30;;;1.17;;
651;SDS011;310;48.490;9.200;2022-08-23T17:52:49;1.23;;;1.00;;